Date,TemperatureHighF,TemperatureAvgF,TemperatureLowF,DewpointHighF,DewpointAvgF,DewpointLowF,HumidityHigh,HumidityAvg,HumidityLow,PressureMaxIn,PressureMinIn,WindSpeedMaxMPH,WindSpeedAvgMPH,GustSpeedMaxMPH,PrecipitationSumIn
2014-1-1,44,32,28,25,19,16,68,60,45,30.35,30.25,6,0,6,0.00
2014-1-2,40,36,24,39,32,13,99,84,64,29.84,29.62,37,3,37,0.08
2014-1-3,27,20,15,15,4,-1,71,50,31,30.43,29.79,17,3,36,0.00
2014-1-4,37,26,15,22,12,6,72,56,31,30.46,30.21,15,0,15,0.00
2014-1-5,34,31,29,33,27,19,98,85,60,30.21,30.10,4,0,4,0.02
2014-1-6,26,13,2,14,-1,-11,64,52,40,30.21,29.83,33,6,33,0.09
2014-1-7,20,9,0,1,-8,-15,57,44,28,30.49,30.21,31,3,31,0.00
2014-1-8,43,27,12,15,8,-3,60,44,26,30.53,30.41,5,0,7,0.00
2014-1-9,45,36,27,20,12,4,61,41,18,30.52,30.40,4,0,6,0.00
2014-1-10,43,38,33,43,34,10,100,88,31,30.42,30.03,4,0,4,0.39
2014-1-11,50,45,42,50,44,30,100,95,60,30.04,29.53,28,1,28,1.14
2014-1-12,54,44,37,31,27,14,74,53,22,30.10,29.68,34,3,34,0.00
2014-1-13,48,41,33,40,33,29,92,75,58,30.08,29.86,7,0,11,0.04
2014-1-14,50,43,40,42,35,27,100,75,42,29.91,29.70,25,2,25,0.03
2014-1-15,46,39,36,33,27,22,73,62,52,29.90,29.77,16,1,16,0.00
2014-1-16,37,37,37,23,23,23,57,57,57,29.88,29.84,0,0,0,0.00
2014-1-17,46,40,38,28,24,19,64,53,35,29.86,29.70,22,5,22,0.00
2014-1-18,38,32,20,25,16,5,58,51,41,30.05,29.80,22,4,22,0.00
2014-1-19,31,31,31,12,12,12,45,45,45,29.91,29.88,0,0,0,0.00
2014-1-20,60,52,45,24,22,18,43,31,20,29.79,29.67,13,2,18,0.00
2014-1-21,47,39,32,32,24,19,79,53,43,29.77,29.47,40,6,40,0.00
2014-1-22,32,27,14,20,5,-11,60,41,19,30.05,29.75,13,5,14,0.00
2014-1-23,28,25,22,8,2,-3,53,36,31,30.39,29.94,27,4,27,0.00
2014-1-24,24,20,6,2,-1,-14,54,39,28,30.59,30.33,11,7,11,0.00
2014-1-27,50,40,35,33,26,23,62,58,47,29.96,29.74,24,8,24,0.00
2014-1-28,35,23,0,24,16,0,62,41,62,30.09,29.95,8,5,8,0.00
2014-1-29,27,15,0,1,-6,-11,56,17,20,30.31,29.95,17,2,17,0.00
2014-1-30,33,26,10,8,-2,-24,58,30,20,30.38,30.03,7,2,7,0.00
2014-2-4,38,38,38,32,32,32,77,77,77,30.12,30.01,1,1,1,0.00
2014-2-5,55,42,35,48,33,29,100,72,48,30.04,29.69,36,6,36,0.00
2014-2-6,41,38,27,29,23,16,65,55,44,30.27,30.00,13,4,13,0.00
2014-2-8,44,44,44,25,25,25,48,48,48,30.17,30.17,0,0,0,0.00
2014-2-10,41,36,32,35,33,29,98,91,65,30.16,30.04,7,0,7,0.04
2014-2-11,35,30,27,30,22,14,93,70,55,30.32,30.15,7,0,7,0.00
2014-2-12,29,24,21,27,17,9,95,74,52,30.37,29.81,12,1,12,0.00
2014-2-13,29,28,28,27,26,25,93,91,89,29.82,29.70,14,3,14,0.00
2014-2-19,68,62,51,48,42,39,68,49,36,30.01,29.82,33,4,33,0.11
2014-2-20,63,55,49,53,42,32,81,62,47,30.09,29.82,10,0,10,0.00
2014-2-21,60,52,40,56,35,7,98,58,15,30.00,29.68,31,3,31,0.57
2014-2-22,62,51,42,23,18,11,41,27,17,30.12,29.96,18,1,18,0.00
2014-2-23,66,53,38,29,25,19,57,35,21,30.01,29.81,13,1,13,0.00
2014-2-24,55,45,36,33,20,11,67,40,23,30.08,29.82,33,5,33,0.00
2014-2-25,52,42,34,24,18,12,57,38,25,30.03,29.86,19,1,19,0.00
2014-2-26,38,37,36,23,20,18,56,50,44,29.87,29.83,5,0,5,0.00
2014-3-3,32,29,27,32,29,26,99,98,96,30.20,29.98,9,2,9,0.24
2014-3-4,35,28,20,26,19,13,96,71,47,30.31,30.14,8,1,8,0.01
2014-3-5,53,38,25,30,23,9,77,57,22,30.20,30.04,7,0,7,0.01
2014-3-6,38,34,30,33,19,11,96,58,40,30.32,30.07,10,2,14,0.01
2014-3-7,48,38,32,39,34,31,98,87,64,30.07,29.88,7,1,9,0.60
2014-3-8,66,53,41,42,33,24,81,50,21,30.00,29.89,21,2,21,0.00
2014-3-9,62,54,47,38,30,20,63,42,25,30.02,29.90,31,4,31,0.00
2014-3-10,70,57,46,37,28,17,52,35,14,29.97,29.73,31,4,31,0.00
2014-3-11,76,63,50,39,33,26,56,34,18,29.75,29.56,15,1,15,0.00
2014-3-12,70,53,34,61,41,21,100,67,34,29.65,29.16,33,3,38,0.09
2014-3-13,41,34,28,25,8,-2,84,36,17,30.17,29.64,28,4,28,0.00
2014-3-14,50,36,30,20,9,3,36,32,28,30.17,29.96,6,1,6,0.00
2014-3-15,65,55,45,38,29,19,51,37,23,29.97,29.90,30,3,30,0.00
2014-3-16,50,40,36,38,36,30,95,88,45,29.97,29.77,13,2,13,0.49
2014-3-17,29,28,28,28,28,28,99,99,98,29.95,29.89,5,0,5,0.03
2014-3-18,43,35,28,41,34,28,100,96,84,30.13,29.90,7,0,7,0.09
2014-3-19,45,41,37,45,40,37,100,96,86,30.12,29.91,6,0,6,0.02
2014-3-20,57,50,43,41,26,11,89,42,17,30.03,29.88,32,5,32,0.00
2014-3-21,66,51,34,30,24,19,62,37,20,30.08,29.93,8,1,14,0.00
2014-3-22,69,56,44,40,30,22,51,37,27,29.94,29.86,24,1,24,0.00
2014-3-28,54,54,53,52,52,51,94,92,90,30.05,30.03,0,0,0,0.00
2014-3-29,57,53,52,57,53,51,100,98,94,30.03,29.59,4,0,4,0.47
2014-3-30,43,41,41,30,29,28,64,62,60,29.89,29.85,0,0,0,0.00
2014-3-31,73,66,56,27,23,18,31,20,13,30.02,29.95,0,0,0,0.00
2014-4-1,57,55,53,26,24,22,35,30,27,30.01,29.99,0,0,0,0.00
2014-4-4,62,62,62,43,43,42,51,50,48,29.75,29.75,0,0,0,0.00
2014-4-5,66,57,48,47,34,26,62,43,25,30.01,29.74,21,2,21,0.00
2014-4-6,57,49,40,37,32,27,68,51,38,30.14,30.00,13,1,13,0.00
2014-4-7,51,46,43,51,45,34,100,96,54,30.02,29.60,7,0,7,1.20
2014-4-8,57,51,48,52,40,33,100,68,43,29.69,29.54,26,3,26,0.00
2014-4-9,62,52,45,41,34,26,70,51,27,30.07,29.68,26,2,26,0.00
2014-4-10,47,44,42,31,29,28,61,56,50,30.10,30.07,10,0,10,0.00
2014-4-17,58,52,43,27,25,23,54,36,27,30.43,30.36,11,2,11,0.00
2014-4-18,52,46,39,42,35,26,84,67,53,30.40,30.16,6,0,6,0.00
2014-4-19,58,50,44,54,47,42,100,91,60,30.20,30.07,5,0,5,0.25
2014-4-20,67,57,48,46,34,25,89,45,22,30.24,30.12,17,2,17,0.00
2014-4-21,76,60,41,46,39,31,75,48,28,30.15,29.83,7,0,7,0.00
2014-4-22,71,64,57,60,50,43,84,60,47,29.83,29.64,21,2,21,0.02
2014-4-23,69,60,50,51,28,15,67,32,15,29.93,29.65,22,2,22,0.00
2014-4-24,71,57,42,40,33,25,63,41,27,30.06,29.88,9,0,9,0.00
2014-4-25,68,59,52,60,47,39,91,66,51,29.88,29.67,28,2,28,0.01
2014-4-26,80,65,49,49,40,24,81,46,14,29.94,29.82,21,2,21,0.00
2014-4-27,84,70,53,51,43,35,56,40,23,29.91,29.81,12,0,12,0.00
2014-4-28,69,61,54,61,55,51,95,81,52,29.89,29.78,11,0,11,0.23
2014-4-29,54,53,52,53,52,51,100,97,92,29.87,29.78,14,0,14,1.79
2014-4-30,68,64,54,66,60,54,100,88,79,29.90,29.77,13,0,13,0.03
2014-5-1,73,62,53,57,53,50,92,75,48,29.82,29.75,9,1,9,0.00
2014-5-3,72,67,58,44,39,33,56,36,27,29.87,29.79,26,3,26,0.00
2014-5-4,62,60,58,41,39,38,50,45,42,29.87,29.85,9,0,9,0.00
2014-5-8,85,78,70,57,52,45,59,41,27,30.04,30.00,4,0,10,0.00
2014-5-9,70,64,60,55,54,52,79,72,59,30.03,30.01,4,0,4,0.00
2014-5-14,82,77,72,67,60,57,65,55,45,30.04,29.93,14,1,14,0.00
2014-5-15,71,67,64,63,61,59,96,81,65,29.93,29.86,9,0,9,0.34
2014-5-22,74,74,73,62,62,62,68,66,65,29.88,29.88,6,1,6,0.15
2014-5-23,78,72,63,62,57,46,77,60,33,29.98,29.85,29,4,29,0.00
2014-5-24,80,67,52,54,48,40,81,53,27,30.06,29.92,12,1,12,0.00
2014-5-25,76,65,54,62,55,46,91,70,53,30.12,30.03,10,0,10,0.00
2014-5-26,82,70,58,67,62,58,99,78,54,30.10,29.99,10,0,10,0.00
2014-5-27,82,70,62,68,63,59,91,79,51,30.03,29.93,7,0,15,0.00
2014-5-28,84,70,62,71,62,57,92,78,48,29.96,29.90,23,0,23,0.04
2014-5-29,80,70,62,68,63,57,99,80,55,30.02,29.93,13,0,13,0.79
2014-5-30,81,68,63,71,66,61,100,95,64,30.02,29.96,19,0,19,1.40
2014-5-31,74,67,62,67,63,57,100,88,56,30.13,30.00,9,0,9,0.03
2014-6-1,68,62,58,62,58,54,99,87,72,30.28,30.13,5,0,5,0.00
2014-6-2,76,61,55,60,57,54,99,88,54,30.22,30.07,5,0,5,0.00
2014-6-3,78,72,64,66,62,60,88,71,56,30.03,29.91,15,1,15,0.00
2014-6-4,86,74,64,69,64,60,91,73,46,29.93,29.66,13,0,13,0.05
2014-6-5,80,73,66,70,65,62,91,78,58,29.81,29.62,23,1,23,0.03
2014-6-6,79,71,62,67,62,58,93,75,57,29.89,29.77,7,1,7,0.00
2014-6-7,79,70,64,67,62,59,86,77,60,29.96,29.84,6,0,6,0.00
2014-6-8,80,73,70,72,68,64,100,82,70,29.91,29.74,5,0,5,0.00
2014-6-9,82,73,65,70,68,61,100,84,58,29.86,29.74,16,0,16,0.46
2014-6-10,87,75,63,71,66,62,100,77,48,29.88,29.75,7,0,10,0.09
2014-6-11,79,70,65,69,66,65,98,87,67,29.88,29.80,6,0,6,0.00
2014-8-16,82,74,65,69,63,52,87,68,39,30.01,29.87,11,0,11,3.36
2014-8-17,81,72,65,72,64,56,91,78,64,29.95,29.88,4,0,4,0.00
2014-8-18,81,72,67,75,68,64,99,87,63,29.89,29.72,14,0,14,0.12
2014-8-19,86,75,65,70,66,63,96,75,51,29.84,29.73,14,0,14,0.00
2014-8-20,85,74,66,74,68,61,97,82,60,29.98,29.80,22,0,22,0.01
2014-8-21,86,77,67,74,67,60,82,72,56,30.04,29.91,12,0,12,0.00
2014-8-22,90,80,72,73,70,65,83,73,49,30.02,29.84,13,1,13,0.00
2014-8-23,88,77,69,75,69,66,97,79,51,29.90,29.78,13,1,13,0.03
2014-8-24,74,74,74,72,72,72,91,91,91,30.09,29.83,1,1,1,0.00
2014-8-25,75,72,63,72,64,56,92,76,57,30.09,29.99,10,1,10,0.00
2014-8-26,77,67,56,63,59,56,99,79,59,30.12,30.02,9,0,9,0.00
2014-8-27,82,70,55,66,60,55,98,73,45,30.08,29.90,5,0,5,0.00
2014-8-28,87,74,64,73,66,58,97,77,53,29.97,29.88,8,0,8,0.15
2014-8-29,68,68,67,67,67,66,98,98,97,29.96,29.95,1,0,1,0.00
2014-10-12,70,55,52,64,54,51,99,96,81,30.20,30.09,5,0,5,3.16
2014-10-13,60,57,54,60,57,53,100,99,97,30.20,30.07,2,0,2,0.01
2014-10-14,60,32,0,60,32,0,100,53,100,30.07,29.71,0,0,0,0.00
2014-10-15,67,38,0,60,33,0,100,47,61,29.78,29.67,9,0,9,0.00
2014-10-16,62,58,53,56,51,47,97,76,65,29.84,29.67,11,1,21,0.00
2014-10-17,70,62,47,54,51,38,94,67,55,29.87,29.70,9,0,9,0.00
2014-10-18,66,62,58,54,48,41,70,61,47,29.85,29.68,27,4,27,0.00
2014-10-20,64,62,61,50,49,48,66,62,58,29.99,29.91,7,2,7,0.00
2014-10-22,55,52,50,40,38,36,65,61,52,30.07,30.01,21,3,21,0.00
2014-10-23,64,56,44,41,39,33,79,54,36,30.04,29.90,19,2,19,0.00
2014-10-24,66,60,54,44,41,36,62,50,34,30.01,29.89,5,1,5,0.00
2014-10-25,70,62,46,50,42,21,67,49,18,30.00,29.83,28,2,28,0.00
2014-10-26,74,66,58,52,43,31,77,48,21,29.90,29.78,24,2,24,0.00
2014-10-27,73,60,53,52,46,40,72,60,41,30.04,29.88,7,0,7,0.00
2014-10-28,76,64,52,57,52,47,87,67,44,30.06,29.92,11,0,11,0.00
2014-10-29,69,60,56,55,51,46,88,72,58,29.94,29.87,17,3,17,0.00
2014-10-30,62,53,42,46,38,31,81,59,35,30.05,29.88,10,1,10,0.00
2014-10-31,54,45,38,46,39,33,96,81,61,29.94,29.72,15,0,15,0.04
2014-11-1,44,40,35,39,32,28,89,72,59,30.00,29.66,28,6,28,0.04
2014-11-2,47,43,38,22,18,12,47,37,28,30.30,30.22,20,3,20,0.00
2014-11-3,63,48,33,29,21,13,55,37,18,30.39,30.26,6,0,6,0.00
2014-11-4,65,54,44,41,32,23,52,42,30,30.27,30.13,4,0,5,0.00
2014-11-5,67,56,48,47,37,30,75,50,30,30.20,30.03,5,0,5,0.00
2014-11-6,66,56,46,56,42,27,96,64,31,30.03,29.68,33,3,33,0.01
2014-11-7,49,43,35,34,31,27,78,62,45,30.02,29.75,25,4,34,0.00
2014-11-8,52,39,30,35,29,25,86,69,49,30.07,29.91,10,0,10,0.00
2014-11-13,55,46,34,42,35,28,82,66,56,30.01,29.87,12,2,20,0.00
2014-11-14,34,29,21,28,16,11,77,58,45,30.33,29.98,16,3,22,0.00
2014-11-15,32,24,19,16,13,9,72,61,43,30.37,30.31,6,0,6,0.00
2014-11-16,49,40,28,29,22,15,67,50,35,30.32,30.03,9,0,9,0.00
2014-11-17,47,39,28,46,33,16,100,80,59,29.91,29.58,17,2,17,0.79
2014-11-18,28,23,19,18,8,2,68,52,39,30.28,29.91,29,3,29,0.01
2014-11-19,38,31,20,13,9,2,53,39,27,30.34,30.14,15,1,15,0.00
2014-11-20,50,40,27,29,21,13,68,47,29,30.14,29.99,36,4,36,0.00
2014-11-21,49,39,30,19,8,-1,49,30,13,30.48,30.09,24,2,24,0.00
2014-11-22,50,37,25,23,16,10,59,43,26,30.51,30.25,7,0,7,0.00
2014-11-23,43,41,38,32,24,20,68,51,42,30.25,30.16,2,0,2,0.00
2014-11-24,66,61,54,55,53,45,89,75,64,29.82,29.62,11,1,11,0.00
2014-11-25,56,50,45,46,32,16,75,50,21,30.04,29.81,13,1,13,0.00
2014-11-26,46,40,36,43,36,30,99,86,57,30.03,29.87,16,1,16,0.82
2014-11-27,40,36,30,33,28,17,97,74,57,30.27,29.91,26,2,26,0.12
2014-11-28,41,32,26,21,18,14,70,56,39,30.35,30.22,13,1,13,0.00
2014-11-29,49,38,28,28,25,20,78,61,41,30.25,30.14,6,0,6,0.00
2014-11-30,61,44,33,44,34,27,89,68,48,30.23,30.13,8,0,8,0.00